sensor_id;sensor_type;location;lat;lon;timestamp;temperature;humidity
30186;DHT22;31152;49.190;8.122;2023-08-08T00:02:02;13.50;99.90
30186;DHT22;31152;49.190;8.122;2023-08-08T00:04:31;13.50;99.90
30186;DHT22;31152;49.190;8.122;2023-08-08T00:06:58;13.50;99.90
30186;DHT22;31152;49.190;8.122;2023-08-08T00:09:26;13.60;99.90
30186;DHT22;31152;49.190;8.122;2023-08-08T00:11:53;13.70;99.90
30186;DHT22;31152;49.190;8.122;2023-08-08T00:14:26;13.80;99.90
30186;DHT22;31152;49.190;8.122;2023-08-08T00:16:56;14.00;99.90
30186;DHT22;31152;49.190;8.122;2023-08-08T00:19:22;14.10;99.90
30186;DHT22;31152;49.190;8.122;2023-08-08T00:21:49;14.10;99.90
30186;DHT22;31152;49.190;8.122;2023-08-08T00:24:16;14.10;99.90
30186;DHT22;31152;49.190;8.122;2023-08-08T00:26:43;14.20;99.90
30186;DHT22;31152;49.190;8.122;2023-08-08T00:29:10;14.30;99.90
30186;DHT22;31152;49.190;8.122;2023-08-08T00:31:36;14.30;99.90
30186;DHT22;31152;49.190;8.122;2023-08-08T00:34:03;14.30;99.90
30186;DHT22;31152;49.190;8.122;2023-08-08T00:36:30;14.40;99.90
30186;DHT22;31152;49.190;8.122;2023-08-08T00:38:57;14.30;99.90
30186;DHT22;31152;49.190;8.122;2023-08-08T00:41:25;14.30;99.90
30186;DHT22;31152;49.190;8.122;2023-08-08T00:43:51;14.20;99.90
30186;DHT22;31152;49.190;8.122;2023-08-08T00:46:21;14.20;99.90
30186;DHT22;31152;49.190;8.122;2023-08-08T00:48:52;14.00;99.90
30186;DHT22;31152;49.190;8.122;2023-08-08T00:51:20;13.90;99.90
30186;DHT22;31152;49.190;8.122;2023-08-08T00:53:49;13.80;99.90
30186;DHT22;31152;49.190;8.122;2023-08-08T00:56:19;13.60;99.90
30186;DHT22;31152;49.190;8.122;2023-08-08T00:58:46;13.50;99.90
30186;DHT22;31152;49.190;8.122;2023-08-08T01:01:13;13.40;99.90
30186;DHT22;31152;49.190;8.122;2023-08-08T01:03:40;13.40;99.90
30186;DHT22;31152;49.190;8.122;2023-08-08T01:06:19;13.30;99.90
30186;DHT22;31152;49.190;8.122;2023-08-08T01:08:58;13.30;99.90
30186;DHT22;31152;49.190;8.122;2023-08-08T01:11:27;13.20;99.90
30186;DHT22;31152;49.190;8.122;2023-08-08T01:13:56;13.20;99.90
30186;DHT22;31152;49.190;8.122;2023-08-08T01:16:26;13.10;99.90
30186;DHT22;31152;49.190;8.122;2023-08-08T01:18:54;13.10;99.90
30186;DHT22;31152;49.190;8.122;2023-08-08T01:21:25;13.10;99.90
30186;DHT22;31152;49.190;8.122;2023-08-08T01:26:33;13.10;99.90
30186;DHT22;31152;49.190;8.122;2023-08-08T01:29:00;13.10;99.90
30186;DHT22;31152;49.190;8.122;2023-08-08T01:31:30;13.20;99.90
30186;DHT22;31152;49.190;8.122;2023-08-08T01:33:59;13.10;99.90
30186;DHT22;31152;49.190;8.122;2023-08-08T01:36:30;13.10;99.90
30186;DHT22;31152;49.190;8.122;2023-08-08T01:39:00;13.10;99.90
30186;DHT22;31152;49.190;8.122;2023-08-08T01:41:32;13.00;99.90
30186;DHT22;31152;49.190;8.122;2023-08-08T01:44:01;13.10;99.90
30186;DHT22;31152;49.190;8.122;2023-08-08T01:46:30;13.10;99.90
30186;DHT22;31152;49.190;8.122;2023-08-08T01:48:58;13.00;99.90
30186;DHT22;31152;49.190;8.122;2023-08-08T01:51:27;12.90;99.90
30186;DHT22;31152;49.190;8.122;2023-08-08T01:53:54;12.90;99.90
30186;DHT22;31152;49.190;8.122;2023-08-08T01:56:21;12.80;99.90
30186;DHT22;31152;49.190;8.122;2023-08-08T01:58:47;12.70;99.90
30186;DHT22;31152;49.190;8.122;2023-08-08T02:01:14;12.70;99.90
30186;DHT22;31152;49.190;8.122;2023-08-08T02:03:43;12.60;99.90
30186;DHT22;31152;49.190;8.122;2023-08-08T02:06:12;12.70;99.90
30186;DHT22;31152;49.190;8.122;2023-08-08T02:08:42;12.60;99.90
30186;DHT22;31152;49.190;8.122;2023-08-08T02:11:09;12.60;99.90
30186;DHT22;31152;49.190;8.122;2023-08-08T02:13:36;12.60;99.90
30186;DHT22;31152;49.190;8.122;2023-08-08T02:16:05;12.50;99.90
30186;DHT22;31152;49.190;8.122;2023-08-08T02:18:32;12.50;99.90
30186;DHT22;31152;49.190;8.122;2023-08-08T02:20:59;12.40;99.90
30186;DHT22;31152;49.190;8.122;2023-08-08T02:23:25;12.30;99.90
30186;DHT22;31152;49.190;8.122;2023-08-08T02:25:55;12.30;99.90
30186;DHT22;31152;49.190;8.122;2023-08-08T02:28:22;12.30;99.90
30186;DHT22;31152;49.190;8.122;2023-08-08T02:30:48;12.20;99.90
30186;DHT22;31152;49.190;8.122;2023-08-08T02:33:15;12.30;99.90
30186;DHT22;31152;49.190;8.122;2023-08-08T02:35:42;12.30;99.90
30186;DHT22;31152;49.190;8.122;2023-08-08T02:38:09;12.30;99.90
30186;DHT22;31152;49.190;8.122;2023-08-08T02:40:36;12.30;99.90
30186;DHT22;31152;49.190;8.122;2023-08-08T02:43:03;12.30;99.90
30186;DHT22;31152;49.190;8.122;2023-08-08T02:45:32;12.30;99.90
30186;DHT22;31152;49.190;8.122;2023-08-08T02:47:58;12.30;99.90
30186;DHT22;31152;49.190;8.122;2023-08-08T02:50:28;12.40;99.90
30186;DHT22;31152;49.190;8.122;2023-08-08T02:52:54;12.40;99.90
30186;DHT22;31152;49.190;8.122;2023-08-08T02:55:21;12.40;99.90
30186;DHT22;31152;49.190;8.122;2023-08-08T02:57:48;12.40;99.90
30186;DHT22;31152;49.190;8.122;2023-08-08T03:00:15;12.40;99.90
30186;DHT22;31152;49.190;8.122;2023-08-08T03:02:41;12.40;99.90
30186;DHT22;31152;49.190;8.122;2023-08-08T03:05:08;12.30;99.90
30186;DHT22;31152;49.190;8.122;2023-08-08T03:07:35;12.30;99.90
30186;DHT22;31152;49.190;8.122;2023-08-08T03:10:02;12.30;99.90
30186;DHT22;31152;49.190;8.122;2023-08-08T03:12:29;12.30;99.90
30186;DHT22;31152;49.190;8.122;2023-08-08T03:14:56;12.20;99.90
30186;DHT22;31152;49.190;8.122;2023-08-08T03:17:23;12.30;99.90
30186;DHT22;31152;49.190;8.122;2023-08-08T03:19:50;12.30;99.90
30186;DHT22;31152;49.190;8.122;2023-08-08T03:22:19;12.30;99.90
30186;DHT22;31152;49.190;8.122;2023-08-08T03:24:46;12.30;99.90
30186;DHT22;31152;49.190;8.122;2023-08-08T03:27:13;12.30;99.90
30186;DHT22;31152;49.190;8.122;2023-08-08T03:29:39;12.30;99.90
30186;DHT22;31152;49.190;8.122;2023-08-08T03:32:06;12.30;99.90
30186;DHT22;31152;49.190;8.122;2023-08-08T03:34:33;12.20;99.90
30186;DHT22;31152;49.190;8.122;2023-08-08T03:37:03;12.20;99.90
30186;DHT22;31152;49.190;8.122;2023-08-08T03:39:32;12.20;99.90
30186;DHT22;31152;49.190;8.122;2023-08-08T03:42:01;12.20;99.90
30186;DHT22;31152;49.190;8.122;2023-08-08T03:44:28;12.20;99.90
30186;DHT22;31152;49.190;8.122;2023-08-08T03:46:57;12.20;99.90
30186;DHT22;31152;49.190;8.122;2023-08-08T03:49:43;12.10;99.90
30186;DHT22;31152;49.190;8.122;2023-08-08T03:52:09;12.00;99.90
30186;DHT22;31152;49.190;8.122;2023-08-08T03:54:39;12.00;99.90
30186;DHT22;31152;49.190;8.122;2023-08-08T03:57:06;12.00;99.90
30186;DHT22;31152;49.190;8.122;2023-08-08T03:59:33;11.90;99.90
30186;DHT22;31152;49.190;8.122;2023-08-08T04:02:00;11.90;99.90
30186;DHT22;31152;49.190;8.122;2023-08-08T04:04:29;11.90;99.90
30186;DHT22;31152;49.190;8.122;2023-08-08T04:06:58;11.80;99.90
30186;DHT22;31152;49.190;8.122;2023-08-08T04:09:25;11.70;99.90
30186;DHT22;31152;49.190;8.122;2023-08-08T04:11:52;11.70;99.90
30186;DHT22;31152;49.190;8.122;2023-08-08T04:14:19;11.70;99.90
30186;DHT22;31152;49.190;8.122;2023-08-08T04:16:46;11.70;99.90
30186;DHT22;31152;49.190;8.122;2023-08-08T04:19:12;11.70;99.90
30186;DHT22;31152;49.190;8.122;2023-08-08T04:21:39;11.70;99.90
30186;DHT22;31152;49.190;8.122;2023-08-08T04:24:06;11.70;99.90
30186;DHT22;31152;49.190;8.122;2023-08-08T04:26:34;11.70;99.90
30186;DHT22;31152;49.190;8.122;2023-08-08T04:29:01;11.70;99.90
30186;DHT22;31152;49.190;8.122;2023-08-08T04:31:30;11.80;99.90
30186;DHT22;31152;49.190;8.122;2023-08-08T04:33:59;11.80;99.90
30186;DHT22;31152;49.190;8.122;2023-08-08T04:36:28;11.70;99.90
30186;DHT22;31152;49.190;8.122;2023-08-08T04:38:58;11.70;99.90
30186;DHT22;31152;49.190;8.122;2023-08-08T04:41:28;11.80;99.90
30186;DHT22;31152;49.190;8.122;2023-08-08T04:43:58;11.70;99.90
30186;DHT22;31152;49.190;8.122;2023-08-08T04:46:27;11.80;99.90
30186;DHT22;31152;49.190;8.122;2023-08-08T04:48:56;11.80;99.90
30186;DHT22;31152;49.190;8.122;2023-08-08T04:51:24;11.90;99.90
30186;DHT22;31152;49.190;8.122;2023-08-08T04:53:55;11.90;99.90
30186;DHT22;31152;49.190;8.122;2023-08-08T04:56:22;11.90;99.90
30186;DHT22;31152;49.190;8.122;2023-08-08T04:58:55;12.00;99.90
30186;DHT22;31152;49.190;8.122;2023-08-08T05:01:22;12.00;99.90
30186;DHT22;31152;49.190;8.122;2023-08-08T05:03:51;12.10;99.90
30186;DHT22;31152;49.190;8.122;2023-08-08T05:06:21;12.10;99.90
30186;DHT22;31152;49.190;8.122;2023-08-08T05:08:51;12.20;99.90
30186;DHT22;31152;49.190;8.122;2023-08-08T05:11:22;12.20;99.90
30186;DHT22;31152;49.190;8.122;2023-08-08T05:13:49;12.30;99.90
30186;DHT22;31152;49.190;8.122;2023-08-08T05:16:16;12.30;99.90
30186;DHT22;31152;49.190;8.122;2023-08-08T05:18:42;12.40;99.90
30186;DHT22;31152;49.190;8.122;2023-08-08T05:21:11;12.40;99.90
30186;DHT22;31152;49.190;8.122;2023-08-08T05:23:38;12.50;99.90
30186;DHT22;31152;49.190;8.122;2023-08-08T05:26:05;12.50;99.90
30186;DHT22;31152;49.190;8.122;2023-08-08T05:28:32;12.60;99.90
30186;DHT22;31152;49.190;8.122;2023-08-08T05:30:58;12.60;99.90
30186;DHT22;31152;49.190;8.122;2023-08-08T05:33:25;12.60;99.90
30186;DHT22;31152;49.190;8.122;2023-08-08T05:35:55;12.70;99.90
30186;DHT22;31152;49.190;8.122;2023-08-08T05:38:22;12.70;99.90
30186;DHT22;31152;49.190;8.122;2023-08-08T05:40:48;12.70;99.90
30186;DHT22;31152;49.190;8.122;2023-08-08T05:43:18;12.80;99.90
30186;DHT22;31152;49.190;8.122;2023-08-08T05:45:47;12.80;99.90
30186;DHT22;31152;49.190;8.122;2023-08-08T05:48:16;12.90;99.90
30186;DHT22;31152;49.190;8.122;2023-08-08T05:50:45;12.90;99.90
30186;DHT22;31152;49.190;8.122;2023-08-08T05:53:12;12.80;99.90
30186;DHT22;31152;49.190;8.122;2023-08-08T05:55:43;12.90;99.90
30186;DHT22;31152;49.190;8.122;2023-08-08T05:58:10;13.00;99.90
30186;DHT22;31152;49.190;8.122;2023-08-08T06:00:37;13.10;99.90
30186;DHT22;31152;49.190;8.122;2023-08-08T06:03:04;13.20;99.90
30186;DHT22;31152;49.190;8.122;2023-08-08T06:05:31;13.40;99.90
30186;DHT22;31152;49.190;8.122;2023-08-08T06:07:58;13.50;99.90
30186;DHT22;31152;49.190;8.122;2023-08-08T06:10:24;13.60;99.90
30186;DHT22;31152;49.190;8.122;2023-08-08T06:12:53;13.70;99.90
30186;DHT22;31152;49.190;8.122;2023-08-08T06:15:23;13.90;99.90
30186;DHT22;31152;49.190;8.122;2023-08-08T06:17:57;14.00;99.90
30186;DHT22;31152;49.190;8.122;2023-08-08T06:20:23;14.10;99.90
30186;DHT22;31152;49.190;8.122;2023-08-08T06:22:51;14.30;99.90
30186;DHT22;31152;49.190;8.122;2023-08-08T06:25:18;14.60;99.90
30186;DHT22;31152;49.190;8.122;2023-08-08T06:27:45;14.90;99.90
30186;DHT22;31152;49.190;8.122;2023-08-08T06:30:14;15.10;99.90
30186;DHT22;31152;49.190;8.122;2023-08-08T06:32:40;15.20;99.90
30186;DHT22;31152;49.190;8.122;2023-08-08T06:35:08;15.30;99.90
30186;DHT22;31152;49.190;8.122;2023-08-08T06:37:38;15.40;99.90
30186;DHT22;31152;49.190;8.122;2023-08-08T06:40:07;15.50;99.90
30186;DHT22;31152;49.190;8.122;2023-08-08T06:42:34;15.60;99.90
30186;DHT22;31152;49.190;8.122;2023-08-08T06:45:01;15.70;99.90
30186;DHT22;31152;49.190;8.122;2023-08-08T06:47:28;15.80;99.90
30186;DHT22;31152;49.190;8.122;2023-08-08T06:49:57;15.90;99.90
30186;DHT22;31152;49.190;8.122;2023-08-08T06:52:24;15.90;99.90
30186;DHT22;31152;49.190;8.122;2023-08-08T06:54:53;16.00;99.90
30186;DHT22;31152;49.190;8.122;2023-08-08T06:57:20;16.00;99.90
30186;DHT22;31152;49.190;8.122;2023-08-08T06:59:47;16.10;99.90
30186;DHT22;31152;49.190;8.122;2023-08-08T07:02:18;16.20;99.90
30186;DHT22;31152;49.190;8.122;2023-08-08T07:04:45;16.20;99.90
30186;DHT22;31152;49.190;8.122;2023-08-08T07:07:12;16.30;99.90
30186;DHT22;31152;49.190;8.122;2023-08-08T07:09:41;16.40;99.90
30186;DHT22;31152;49.190;8.122;2023-08-08T07:12:08;16.40;99.90
30186;DHT22;31152;49.190;8.122;2023-08-08T07:14:35;16.50;99.90
30186;DHT22;31152;49.190;8.122;2023-08-08T07:17:02;16.50;99.90
30186;DHT22;31152;49.190;8.122;2023-08-08T07:19:30;16.70;99.90
30186;DHT22;31152;49.190;8.122;2023-08-08T07:21:59;16.70;99.90
30186;DHT22;31152;49.190;8.122;2023-08-08T07:24:26;16.80;99.90
30186;DHT22;31152;49.190;8.122;2023-08-08T07:26:58;16.90;99.90
30186;DHT22;31152;49.190;8.122;2023-08-08T07:29:27;17.00;99.90
30186;DHT22;31152;49.190;8.122;2023-08-08T07:31:54;17.00;99.90
30186;DHT22;31152;49.190;8.122;2023-08-08T07:34:21;17.00;99.90
30186;DHT22;31152;49.190;8.122;2023-08-08T07:36:48;17.10;99.90
30186;DHT22;31152;49.190;8.122;2023-08-08T07:39:17;17.30;99.90
30186;DHT22;31152;49.190;8.122;2023-08-08T07:41:43;17.30;99.90
30186;DHT22;31152;49.190;8.122;2023-08-08T07:44:12;17.30;99.90
30186;DHT22;31152;49.190;8.122;2023-08-08T07:46:39;17.40;99.90
30186;DHT22;31152;49.190;8.122;2023-08-08T07:49:06;17.50;99.90
30186;DHT22;31152;49.190;8.122;2023-08-08T07:51:33;17.50;99.90
30186;DHT22;31152;49.190;8.122;2023-08-08T07:54:00;17.50;99.90
30186;DHT22;31152;49.190;8.122;2023-08-08T07:56:32;17.50;99.90
30186;DHT22;31152;49.190;8.122;2023-08-08T07:58:58;17.50;99.90
30186;DHT22;31152;49.190;8.122;2023-08-08T08:01:26;17.60;99.90
30186;DHT22;31152;49.190;8.122;2023-08-08T08:03:54;17.70;99.90
30186;DHT22;31152;49.190;8.122;2023-08-08T08:06:20;17.80;99.90
30186;DHT22;31152;49.190;8.122;2023-08-08T08:08:47;17.90;99.90
30186;DHT22;31152;49.190;8.122;2023-08-08T08:11:14;18.00;99.90
30186;DHT22;31152;49.190;8.122;2023-08-08T08:13:43;18.00;99.90
30186;DHT22;31152;49.190;8.122;2023-08-08T08:16:12;18.10;99.90
30186;DHT22;31152;49.190;8.122;2023-08-08T08:18:41;18.10;99.90
30186;DHT22;31152;49.190;8.122;2023-08-08T08:21:09;18.20;99.90
30186;DHT22;31152;49.190;8.122;2023-08-08T08:23:35;18.30;99.90
30186;DHT22;31152;49.190;8.122;2023-08-08T08:26:02;18.40;99.90
30186;DHT22;31152;49.190;8.122;2023-08-08T08:28:29;18.30;99.90
30186;DHT22;31152;49.190;8.122;2023-08-08T08:31:04;18.30;99.90
30186;DHT22;31152;49.190;8.122;2023-08-08T08:33:30;18.40;99.90
30186;DHT22;31152;49.190;8.122;2023-08-08T08:35:57;18.40;99.90
30186;DHT22;31152;49.190;8.122;2023-08-08T08:38:26;18.50;99.90
30186;DHT22;31152;49.190;8.122;2023-08-08T08:40:56;18.50;99.90
30186;DHT22;31152;49.190;8.122;2023-08-08T08:43:23;18.50;99.90
30186;DHT22;31152;49.190;8.122;2023-08-08T08:45:56;18.60;99.90
30186;DHT22;31152;49.190;8.122;2023-08-08T08:48:26;18.70;99.90
30186;DHT22;31152;49.190;8.122;2023-08-08T08:50:56;18.70;99.90
30186;DHT22;31152;49.190;8.122;2023-08-08T08:53:26;18.80;99.90
30186;DHT22;31152;49.190;8.122;2023-08-08T08:55:53;18.80;99.90
30186;DHT22;31152;49.190;8.122;2023-08-08T08:58:21;18.90;99.90
30186;DHT22;31152;49.190;8.122;2023-08-08T09:00:49;19.00;99.90
30186;DHT22;31152;49.190;8.122;2023-08-08T09:03:16;19.00;99.90
30186;DHT22;31152;49.190;8.122;2023-08-08T09:05:43;19.20;99.90
30186;DHT22;31152;49.190;8.122;2023-08-08T09:08:11;19.20;99.90
30186;DHT22;31152;49.190;8.122;2023-08-08T09:10:44;19.20;99.90
30186;DHT22;31152;49.190;8.122;2023-08-08T09:13:12;19.30;99.90
30186;DHT22;31152;49.190;8.122;2023-08-08T09:15:38;19.30;99.90
30186;DHT22;31152;49.190;8.122;2023-08-08T09:18:07;19.40;99.90
30186;DHT22;31152;49.190;8.122;2023-08-08T09:20:34;19.40;99.90
30186;DHT22;31152;49.190;8.122;2023-08-08T09:23:01;19.50;99.90
30186;DHT22;31152;49.190;8.122;2023-08-08T09:25:30;19.50;99.80
30186;DHT22;31152;49.190;8.122;2023-08-08T09:27:59;19.50;99.90
30186;DHT22;31152;49.190;8.122;2023-08-08T09:30:27;19.60;99.90
30186;DHT22;31152;49.190;8.122;2023-08-08T09:33:00;19.70;98.60
30186;DHT22;31152;49.190;8.122;2023-08-08T09:35:32;19.70;98.90
30186;DHT22;31152;49.190;8.122;2023-08-08T09:37:59;19.80;98.80
30186;DHT22;31152;49.190;8.122;2023-08-08T09:40:28;19.80;98.00
30186;DHT22;31152;49.190;8.122;2023-08-08T09:42:57;19.90;98.70
30186;DHT22;31152;49.190;8.122;2023-08-08T09:45:27;20.00;96.90
30186;DHT22;31152;49.190;8.122;2023-08-08T09:48:01;20.10;96.70
30186;DHT22;31152;49.190;8.122;2023-08-08T09:50:28;20.10;96.50
30186;DHT22;31152;49.190;8.122;2023-08-08T09:52:56;20.00;95.20
30186;DHT22;31152;49.190;8.122;2023-08-08T09:55:26;20.10;95.10
30186;DHT22;31152;49.190;8.122;2023-08-08T09:57:53;20.10;94.50
30186;DHT22;31152;49.190;8.122;2023-08-08T10:00:20;20.20;94.80
30186;DHT22;31152;49.190;8.122;2023-08-08T10:02:47;20.30;93.60
30186;DHT22;31152;49.190;8.122;2023-08-08T10:05:15;20.30;93.00
30186;DHT22;31152;49.190;8.122;2023-08-08T10:07:42;20.40;94.40
30186;DHT22;31152;49.190;8.122;2023-08-08T10:10:09;20.50;92.80
30186;DHT22;31152;49.190;8.122;2023-08-08T10:12:39;20.50;93.30
30186;DHT22;31152;49.190;8.122;2023-08-08T10:15:08;20.50;92.80
30186;DHT22;31152;49.190;8.122;2023-08-08T10:17:44;20.60;93.20
30186;DHT22;31152;49.190;8.122;2023-08-08T10:20:12;20.80;92.30
30186;DHT22;31152;49.190;8.122;2023-08-08T10:22:43;20.80;93.60
30186;DHT22;31152;49.190;8.122;2023-08-08T10:25:19;21.00;92.50
30186;DHT22;31152;49.190;8.122;2023-08-08T10:27:49;21.00;92.60
30186;DHT22;31152;49.190;8.122;2023-08-08T10:30:19;20.90;92.00
30186;DHT22;31152;49.190;8.122;2023-08-08T10:32:50;20.90;90.90
30186;DHT22;31152;49.190;8.122;2023-08-08T10:35:21;20.90;90.70
30186;DHT22;31152;49.190;8.122;2023-08-08T10:37:54;20.80;91.10
30186;DHT22;31152;49.190;8.122;2023-08-08T10:40:21;20.90;91.40
30186;DHT22;31152;49.190;8.122;2023-08-08T10:42:48;21.10;91.10
30186;DHT22;31152;49.190;8.122;2023-08-08T10:45:16;21.10;91.70
30186;DHT22;31152;49.190;8.122;2023-08-08T10:47:44;21.20;92.50
30186;DHT22;31152;49.190;8.122;2023-08-08T10:50:15;21.10;92.90
30186;DHT22;31152;49.190;8.122;2023-08-08T10:55:31;21.30;91.00
30186;DHT22;31152;49.190;8.122;2023-08-08T10:58:07;21.30;88.10
30186;DHT22;31152;49.190;8.122;2023-08-08T11:00:35;21.30;88.20
30186;DHT22;31152;49.190;8.122;2023-08-08T11:03:05;21.30;90.30
30186;DHT22;31152;49.190;8.122;2023-08-08T11:05:36;21.40;90.30
30186;DHT22;31152;49.190;8.122;2023-08-08T11:08:04;21.60;88.30
30186;DHT22;31152;49.190;8.122;2023-08-08T11:10:40;21.70;90.00
30186;DHT22;31152;49.190;8.122;2023-08-08T11:13:08;21.70;90.20
30186;DHT22;31152;49.190;8.122;2023-08-08T11:15:36;21.80;88.10
30186;DHT22;31152;49.190;8.122;2023-08-08T11:18:06;21.70;88.00
30186;DHT22;31152;49.190;8.122;2023-08-08T11:20:36;21.60;85.90
30186;DHT22;31152;49.190;8.122;2023-08-08T11:23:03;21.70;89.60
30186;DHT22;31152;49.190;8.122;2023-08-08T11:25:40;21.60;90.20
30186;DHT22;31152;49.190;8.122;2023-08-08T11:28:08;21.70;90.00
30186;DHT22;31152;49.190;8.122;2023-08-08T11:30:38;21.70;90.20
30186;DHT22;31152;49.190;8.122;2023-08-08T11:33:08;22.00;88.40
30186;DHT22;31152;49.190;8.122;2023-08-08T11:35:44;22.00;84.70
30186;DHT22;31152;49.190;8.122;2023-08-08T11:38:13;22.20;83.80
30186;DHT22;31152;49.190;8.122;2023-08-08T11:40:40;22.30;81.20
30186;DHT22;31152;49.190;8.122;2023-08-08T11:43:07;22.10;83.00
30186;DHT22;31152;49.190;8.122;2023-08-08T11:45:34;22.10;83.70
30186;DHT22;31152;49.190;8.122;2023-08-08T11:48:03;22.20;85.80
30186;DHT22;31152;49.190;8.122;2023-08-08T11:50:34;22.10;86.50
30186;DHT22;31152;49.190;8.122;2023-08-08T11:53:03;22.00;88.20
30186;DHT22;31152;49.190;8.122;2023-08-08T11:55:30;22.20;85.00
30186;DHT22;31152;49.190;8.122;2023-08-08T11:57:57;22.30;86.70
30186;DHT22;31152;49.190;8.122;2023-08-08T12:00:28;22.40;85.00
30186;DHT22;31152;49.190;8.122;2023-08-08T12:02:57;22.50;78.20
30186;DHT22;31152;49.190;8.122;2023-08-08T12:05:27;22.50;81.30
30186;DHT22;31152;49.190;8.122;2023-08-08T12:07:58;22.70;80.30
30186;DHT22;31152;49.190;8.122;2023-08-08T12:10:25;22.60;81.50
30186;DHT22;31152;49.190;8.122;2023-08-08T12:12:56;22.80;80.10
30186;DHT22;31152;49.190;8.122;2023-08-08T12:15:43;22.70;78.30
30186;DHT22;31152;49.190;8.122;2023-08-08T12:18:17;22.50;79.40
30186;DHT22;31152;49.190;8.122;2023-08-08T12:20:52;22.50;81.50
30186;DHT22;31152;49.190;8.122;2023-08-08T12:23:18;22.40;80.70
30186;DHT22;31152;49.190;8.122;2023-08-08T12:25:46;22.50;82.60
30186;DHT22;31152;49.190;8.122;2023-08-08T12:28:13;22.50;80.80
30186;DHT22;31152;49.190;8.122;2023-08-08T12:30:43;22.60;79.50
30186;DHT22;31152;49.190;8.122;2023-08-08T12:33:12;22.60;79.80
30186;DHT22;31152;49.190;8.122;2023-08-08T12:35:39;22.70;80.60
30186;DHT22;31152;49.190;8.122;2023-08-08T12:38:05;22.70;79.50
30186;DHT22;31152;49.190;8.122;2023-08-08T12:40:32;22.70;79.20
30186;DHT22;31152;49.190;8.122;2023-08-08T12:43:00;22.80;78.90
30186;DHT22;31152;49.190;8.122;2023-08-08T12:45:27;22.80;79.50
30186;DHT22;31152;49.190;8.122;2023-08-08T12:47:54;22.80;81.10
30186;DHT22;31152;49.190;8.122;2023-08-08T12:50:21;22.80;79.70
30186;DHT22;31152;49.190;8.122;2023-08-08T12:52:49;22.90;81.10
30186;DHT22;31152;49.190;8.122;2023-08-08T12:55:18;22.90;79.80
30186;DHT22;31152;49.190;8.122;2023-08-08T12:57:46;22.70;80.10
30186;DHT22;31152;49.190;8.122;2023-08-08T13:00:13;22.80;82.30
30186;DHT22;31152;49.190;8.122;2023-08-08T13:02:40;22.60;81.60
30186;DHT22;31152;49.190;8.122;2023-08-08T13:05:07;22.70;79.40
30186;DHT22;31152;49.190;8.122;2023-08-08T13:07:36;22.60;79.50
30186;DHT22;31152;49.190;8.122;2023-08-08T13:10:03;22.60;79.80
30186;DHT22;31152;49.190;8.122;2023-08-08T13:12:32;22.70;78.50
30186;DHT22;31152;49.190;8.122;2023-08-08T13:14:59;22.50;80.40
30186;DHT22;31152;49.190;8.122;2023-08-08T13:17:26;22.60;77.60
30186;DHT22;31152;49.190;8.122;2023-08-08T13:19:53;22.70;79.70
30186;DHT22;31152;49.190;8.122;2023-08-08T13:22:22;22.80;78.60
30186;DHT22;31152;49.190;8.122;2023-08-08T13:24:49;22.80;78.80
30186;DHT22;31152;49.190;8.122;2023-08-08T13:27:16;22.70;79.30
30186;DHT22;31152;49.190;8.122;2023-08-08T13:29:45;22.70;79.90
30186;DHT22;31152;49.190;8.122;2023-08-08T13:32:15;22.80;80.60
30186;DHT22;31152;49.190;8.122;2023-08-08T13:34:44;22.90;79.60
30186;DHT22;31152;49.190;8.122;2023-08-08T13:37:13;22.90;80.60
30186;DHT22;31152;49.190;8.122;2023-08-08T13:39:40;23.00;80.40
30186;DHT22;31152;49.190;8.122;2023-08-08T13:42:08;22.90;78.40
30186;DHT22;31152;49.190;8.122;2023-08-08T13:44:35;22.70;79.10
30186;DHT22;31152;49.190;8.122;2023-08-08T13:47:02;22.40;78.10
30186;DHT22;31152;49.190;8.122;2023-08-08T13:49:29;22.60;78.80
30186;DHT22;31152;49.190;8.122;2023-08-08T13:52:01;22.70;79.20
30186;DHT22;31152;49.190;8.122;2023-08-08T13:54:30;22.90;79.40
30186;DHT22;31152;49.190;8.122;2023-08-08T13:56:57;22.90;77.40
30186;DHT22;31152;49.190;8.122;2023-08-08T13:59:24;22.90;77.30
30186;DHT22;31152;49.190;8.122;2023-08-08T14:01:51;22.90;79.10
30186;DHT22;31152;49.190;8.122;2023-08-08T14:04:18;22.90;77.70
30186;DHT22;31152;49.190;8.122;2023-08-08T14:06:45;22.90;78.10
30186;DHT22;31152;49.190;8.122;2023-08-08T14:09:12;23.00;78.40
30186;DHT22;31152;49.190;8.122;2023-08-08T14:11:43;23.10;79.10
30186;DHT22;31152;49.190;8.122;2023-08-08T14:14:12;23.10;79.10
30186;DHT22;31152;49.190;8.122;2023-08-08T14:16:41;22.80;79.10
30186;DHT22;31152;49.190;8.122;2023-08-08T14:19:08;22.80;79.70
30186;DHT22;31152;49.190;8.122;2023-08-08T14:21:35;22.80;80.30
30186;DHT22;31152;49.190;8.122;2023-08-08T14:24:04;22.80;79.70
30186;DHT22;31152;49.190;8.122;2023-08-08T14:26:33;22.90;82.10
30186;DHT22;31152;49.190;8.122;2023-08-08T14:29:00;22.80;81.50
30186;DHT22;31152;49.190;8.122;2023-08-08T14:31:27;22.80;80.00
30186;DHT22;31152;49.190;8.122;2023-08-08T14:33:56;22.60;81.10
30186;DHT22;31152;49.190;8.122;2023-08-08T14:36:23;22.50;80.30
30186;DHT22;31152;49.190;8.122;2023-08-08T14:38:50;22.40;80.80
30186;DHT22;31152;49.190;8.122;2023-08-08T14:41:17;22.30;82.00
30186;DHT22;31152;49.190;8.122;2023-08-08T14:43:46;22.20;81.90
30186;DHT22;31152;49.190;8.122;2023-08-08T14:46:12;22.10;82.30
30186;DHT22;31152;49.190;8.122;2023-08-08T14:48:39;22.00;83.00
30186;DHT22;31152;49.190;8.122;2023-08-08T14:51:08;22.00;84.80
30186;DHT22;31152;49.190;8.122;2023-08-08T14:53:35;22.00;85.00
30186;DHT22;31152;49.190;8.122;2023-08-08T14:56:02;21.90;85.10
30186;DHT22;31152;49.190;8.122;2023-08-08T14:58:29;21.80;85.60
30186;DHT22;31152;49.190;8.122;2023-08-08T15:00:56;21.70;86.80
30186;DHT22;31152;49.190;8.122;2023-08-08T15:03:23;21.70;88.10
30186;DHT22;31152;49.190;8.122;2023-08-08T15:05:49;21.70;86.70
30186;DHT22;31152;49.190;8.122;2023-08-08T15:08:16;21.80;86.50
30186;DHT22;31152;49.190;8.122;2023-08-08T15:10:45;21.80;85.80
30186;DHT22;31152;49.190;8.122;2023-08-08T15:13:14;21.90;86.00
30186;DHT22;31152;49.190;8.122;2023-08-08T15:15:41;22.10;86.00
30186;DHT22;31152;49.190;8.122;2023-08-08T15:18:07;22.20;85.70
30186;DHT22;31152;49.190;8.122;2023-08-08T15:20:34;22.30;85.90
30186;DHT22;31152;49.190;8.122;2023-08-08T15:23:02;22.30;86.00
30186;DHT22;31152;49.190;8.122;2023-08-08T15:25:29;22.20;86.70
30186;DHT22;31152;49.190;8.122;2023-08-08T15:27:56;22.40;85.70
30186;DHT22;31152;49.190;8.122;2023-08-08T15:30:26;22.30;85.70
30186;DHT22;31152;49.190;8.122;2023-08-08T15:32:55;22.30;87.50
30186;DHT22;31152;49.190;8.122;2023-08-08T15:35:22;22.20;86.40
30186;DHT22;31152;49.190;8.122;2023-08-08T15:37:51;22.30;86.70
30186;DHT22;31152;49.190;8.122;2023-08-08T15:40:18;22.40;86.10
30186;DHT22;31152;49.190;8.122;2023-08-08T15:42:45;22.60;85.60